Time;durP1;ratioP1;P1;durP2;ratioP2;P2;SDS_P1;SDS_P2;PMS_P1;PMS_P2;Temp;Humidity;BMP_temperature;BMP_pressure;BME280_temperature;BME280_humidity;BME280_pressure;Samples;Min_cycle;Max_cycle;Signal;HPM_P1;HPM_P2
2023/08/18 03:11:27;;;;;;;17.00;16.30;;;21.90;99.90;;;;;;4904633;29;20469;-87
2023/08/18 03:14:01;;;;;;;17.60;16.73;;;21.80;99.90;;;;;;4913116;29;20473;-86
2023/08/18 03:16:30;;;;;;;17.33;16.50;;;21.70;99.90;;;;;;4921595;28;20473;-85
2023/08/18 03:19:03;;;;;;;17.60;16.60;;;21.80;99.90;;;;;;4905988;29;20454;-85
2023/08/18 03:21:41;;;;;;;17.73;16.73;;;21.80;99.90;;;;;;4916633;29;20468;-87
2023/08/18 03:24:18;;;;;;;17.70;16.90;;;21.80;99.90;;;;;;4907100;29;20492;-85
2023/08/18 03:26:52;;;;;;;17.87;16.97;;;21.80;99.90;;;;;;4906995;29;20499;-86
2023/08/18 03:29:23;;;;;;;17.60;16.90;;;21.80;99.90;;;;;;4907382;29;20490;-85
2023/08/18 03:31:57;;;;;;;17.50;16.80;;;21.80;99.90;;;;;;4905680;29;20453;-87
2023/08/18 03:34:30;;;;;;;17.67;16.80;;;21.70;99.90;;;;;;4906760;29;20470;-87
2023/08/18 03:37:08;;;;;;;18.67;17.63;;;21.70;99.90;;;;;;4907574;29;20490;-85
2023/08/18 03:39:38;;;;;;;17.83;17.13;;;21.60;99.90;;;;;;4905179;29;20454;-88
2023/08/18 03:42:14;;;;;;;17.30;16.43;;;21.60;99.90;;;;;;4906060;29;20508;-87
2023/08/18 03:44:46;;;;;;;17.50;16.70;;;21.60;99.90;;;;;;4905887;29;20512;-87
2023/08/18 03:47:20;;;;;;;16.87;16.27;;;21.60;99.90;;;;;;4913377;29;20510;-86
2023/08/18 03:49:51;;;;;;;17.03;16.27;;;21.60;99.90;;;;;;4906153;29;20473;-85
2023/08/18 03:52:29;;;;;;;17.23;16.53;;;21.50;99.90;;;;;;4908266;29;20462;-85
2023/08/18 03:54:59;;;;;;;17.80;17.03;;;21.40;99.90;;;;;;4911567;29;20469;-85
2023/08/18 03:57:32;;;;;;;17.67;16.77;;;21.50;99.90;;;;;;4912037;29;20589;-87
2023/08/18 04:00:12;;;;;;;18.00;17.10;;;21.50;99.90;;;;;;4918860;29;20467;-86
2023/08/18 04:02:47;;;;;;;17.90;17.00;;;21.50;99.90;;;;;;4923430;29;20457;-86
2023/08/18 04:05:21;;;;;;;17.33;16.63;;;21.40;99.90;;;;;;4907883;29;20458;-89
2023/08/18 04:08:06;;;;;;;17.57;16.87;;;21.40;99.90;;;;;;4907955;29;20473;-88
2023/08/18 04:10:34;;;;;;;17.20;16.50;;;21.30;99.90;;;;;;4906633;29;21053;-85
2023/08/18 04:13:15;;;;;;;17.80;16.63;;;21.30;99.90;;;;;;4906663;29;20468;-86
2023/08/18 04:15:45;;;;;;;18.47;17.40;;;21.30;99.90;;;;;;4906343;28;20500;-85
2023/08/18 04:18:16;;;;;;;17.70;17.00;;;21.30;99.90;;;;;;4909588;29;20505;-86
2023/08/18 04:20:50;;;;;;;17.13;16.43;;;21.30;99.90;;;;;;4910524;29;20444;-85
2023/08/18 04:23:29;;;;;;;18.03;17.23;;;21.20;99.90;;;;;;4910739;29;20459;-85
2023/08/18 04:26:00;;;;;;;18.30;17.50;;;21.20;99.90;;;;;;4924389;29;21111;-87
2023/08/18 04:28:38;;;;;;;19.10;18.00;;;21.20;99.90;;;;;;4908573;29;20444;-86
2023/08/18 04:31:07;;;;;;;17.87;17.17;;;21.10;99.90;;;;;;4906526;29;20964;-85
2023/08/18 04:33:40;;;;;;;17.77;16.87;;;21.10;99.90;;;;;;4920682;29;20469;-87
2023/08/18 04:36:09;;;;;;;17.30;16.60;;;21.10;99.90;;;;;;4910217;29;20525;-88
2023/08/18 04:38:44;;;;;;;17.80;17.07;;;21.10;99.90;;;;;;4910303;29;20584;-85
2023/08/18 04:41:18;;;;;;;17.77;16.97;;;21.10;99.90;;;;;;4904608;29;20533;-85
2023/08/18 04:43:52;;;;;;;18.20;17.30;;;21.10;99.90;;;;;;4910574;28;21006;-84
2023/08/18 04:46:23;;;;;;;18.00;17.10;;;21.10;99.90;;;;;;4906699;29;20486;-85
2023/08/18 04:49:02;;;;;;;18.50;17.40;;;21.10;1.00;;;;;;4907389;29;20532;-86
2023/08/18 04:51:36;;;;;;;18.13;17.33;;;21.10;99.90;;;;;;4904529;29;20534;-86
2023/08/18 04:54:11;;;;;;;18.77;17.70;;;21.10;1.00;;;;;;4906032;29;20481;-86
2023/08/18 04:56:42;;;;;;;18.60;17.80;;;21.10;1.00;;;;;;4906799;29;20513;-85
2023/08/18 04:59:23;;;;;;;18.03;17.33;;;21.10;1.00;;;;;;4919030;29;21110;-87
2023/08/18 05:01:57;;;;;;;18.97;17.97;;;21.00;1.00;;;;;;4904651;29;20441;-87
2023/08/18 05:04:26;;;;;;;18.23;17.50;;;21.00;1.00;;;;;;4905956;29;20959;-86
2023/08/18 05:07:00;;;;;;;18.17;17.27;;;21.00;1.00;;;;;;4906577;29;20558;-85
2023/08/18 05:09:34;;;;;;;17.90;17.10;;;21.00;1.00;;;;;;4904799;29;20967;-85
2023/08/18 05:12:07;;;;;;;18.60;17.60;;;21.00;1.00;;;;;;4903471;29;20467;-86
2023/08/18 05:14:38;;;;;;;18.00;17.30;;;21.00;17.40;;;;;;4910647;29;20474;-85
2023/08/18 05:17:12;;;;;;;19.93;18.83;;;21.00;30.30;;;;;;4904251;29;20481;-86
2023/08/18 05:19:48;;;;;;;18.70;17.90;;;21.10;19.10;;;;;;4924810;29;20468;-87
2023/08/18 05:22:21;;;;;;;19.00;18.20;;;21.10;33.50;;;;;;4918703;29;20441;-89
2023/08/18 05:24:53;;;;;;;18.83;17.93;;;21.10;99.90;;;;;;4907815;29;20556;-86
2023/08/18 05:27:30;;;;;;;18.70;17.80;;;21.20;66.80;;;;;;4903800;29;20488;-85
2023/08/18 05:30:04;;;;;;;19.60;18.70;;;21.20;55.10;;;;;;4904826;29;20466;-86
2023/08/18 05:32:40;;;;;;;19.27;18.37;;;21.20;30.00;;;;;;4908312;29;20457;-85
2023/08/18 05:35:18;;;;;;;18.90;18.10;;;21.20;99.90;;;;;;4903932;29;20468;-85
2023/08/18 05:37:55;;;;;;;19.20;18.30;;;21.30;1.00;;;;;;4905270;29;20493;-87
2023/08/18 05:40:34;;;;;;;18.47;17.67;;;21.30;1.00;;;;;;4907712;29;20540;-86
2023/08/18 05:43:15;;;;;;;18.27;17.37;;;21.30;1.00;;;;;;4906943;29;20441;-86
2023/08/18 05:45:52;;;;;;;18.30;17.60;;;21.30;1.00;;;;;;4904786;29;20964;-86
2023/08/18 05:48:24;;;;;;;18.80;17.90;;;21.40;1.00;;;;;;4903832;29;20477;-85
2023/08/18 05:50:57;;;;;;;17.87;17.07;;;21.40;1.00;;;;;;4903198;29;20460;-85
2023/08/18 05:53:31;;;;;;;18.40;17.40;;;21.30;1.00;;;;;;4905077;29;20458;-85
2023/08/18 05:56:07;;;;;;;18.67;17.67;;;21.40;1.00;;;;;;4901113;29;20462;-86
2023/08/18 05:58:41;;;;;;;18.60;17.50;;;21.50;1.00;;;;;;4903923;29;20611;-86
2023/08/18 06:01:21;;;;;;;18.23;17.43;;;21.60;1.00;;;;;;4902631;29;20469;-86
2023/08/18 06:03:52;;;;;;;18.37;17.57;;;21.70;99.90;;;;;;4901697;29;20516;-85
2023/08/18 06:06:23;;;;;;;17.93;17.23;;;21.80;99.90;;;;;;4902240;29;20476;-86
2023/08/18 06:09:01;;;;;;;18.20;17.50;;;21.80;99.90;;;;;;4905286;29;20469;-89
2023/08/18 06:11:33;;;;;;;18.03;17.23;;;21.90;99.90;;;;;;4904027;29;20469;-85
2023/08/18 06:14:16;;;;;;;18.33;17.53;;;22.00;99.90;;;;;;4905978;29;20509;-86
2023/08/18 06:16:50;;;;;;;18.07;17.40;;;22.10;99.90;;;;;;4903493;29;21063;-87
2023/08/18 06:19:25;;;;;;;18.53;17.63;;;22.30;99.90;;;;;;4903611;29;20489;-85
2023/08/18 06:22:04;;;;;;;19.23;18.00;;;22.40;99.90;;;;;;4903665;29;20450;-85
2023/08/18 06:24:37;;;;;;;18.77;17.87;;;22.60;99.90;;;;;;4903075;29;20967;-85
2023/08/18 06:27:07;;;;;;;18.73;17.97;;;22.70;99.90;;;;;;4906836;29;20551;-88
2023/08/18 06:29:41;;;;;;;18.60;17.67;;;22.90;99.90;;;;;;4908171;29;20462;-86
2023/08/18 06:32:17;;;;;;;18.50;17.60;;;23.10;84.30;;;;;;4907570;29;20453;-86
2023/08/18 06:34:45;;;;;;;18.13;17.30;;;23.40;3.00;;;;;;4906185;29;20913;-86
2023/08/18 06:37:16;;;;;;;18.70;17.70;;;23.60;1.00;;;;;;4907269;29;20484;-86
2023/08/18 06:39:51;;;;;;;18.37;17.57;;;23.80;1.00;;;;;;4907696;29;20484;-90
2023/08/18 06:42:22;;;;;;;18.17;17.47;;;24.00;1.00;;;;;;4911389;29;20450;-87
2023/08/18 06:44:53;;;;;;;18.13;17.33;;;24.20;1.00;;;;;;4907756;29;20454;-85
2023/08/18 06:47:24;;;;;;;18.03;17.33;;;24.30;1.00;;;;;;4910193;29;20490;-87
2023/08/18 06:49:56;;;;;;;17.83;17.10;;;24.40;1.00;;;;;;4922285;29;20454;-88
2023/08/18 06:52:29;;;;;;;17.90;17.10;;;24.50;1.00;;;;;;4912388;29;20466;-86
2023/08/18 06:55:00;;;;;;;17.73;16.73;;;24.70;1.00;;;;;;4905781;29;20972;-87
2023/08/18 06:57:38;;;;;;;17.90;17.10;;;24.80;99.90;;;;;;4910351;29;21074;-86
2023/08/18 07:00:13;;;;;;;17.10;16.33;;;24.90;99.90;;;;;;4907361;29;20540;-86
2023/08/18 07:02:44;;;;;;;17.03;16.43;;;25.10;99.90;;;;;;4922115;29;20453;-85
2023/08/18 07:05:24;;;;;;;17.87;17.27;;;25.20;99.90;;;;;;4922537;29;20497;-86
2023/08/18 07:07:54;;;;;;;17.00;16.37;;;25.40;99.90;;;;;;4909687;29;20489;-86
2023/08/18 07:10:29;;;;;;;16.60;16.00;;;25.50;99.90;;;;;;4911254;29;20619;-87
2023/08/18 07:13:05;;;;;;;16.97;16.17;;;25.60;99.90;;;;;;4908150;29;20465;-85
2023/08/18 07:15:40;;;;;;;17.20;16.00;;;25.60;99.90;;;;;;4913041;29;20556;-86
2023/08/18 07:18:19;;;;;;;17.00;16.30;;;25.80;99.90;;;;;;4909743;29;20831;-86
2023/08/18 07:20:50;;;;;;;16.90;16.30;;;25.90;99.90;;;;;;4908801;29;20458;-85
2023/08/18 07:23:26;;;;;;;16.60;15.80;;;25.80;99.90;;;;;;4914081;29;20681;-87
2023/08/18 07:25:56;;;;;;;17.20;16.50;;;25.80;99.90;;;;;;4910244;29;20465;-88
2023/08/18 07:28:31;;;;;;;15.90;15.40;;;26.00;99.90;;;;;;4908877;29;20562;-85
2023/08/18 07:31:03;;;;;;;15.93;15.43;;;26.00;99.90;;;;;;4908545;29;20465;-88
2023/08/18 07:33:41;;;;;;;16.30;15.70;;;26.00;99.90;;;;;;4922812;29;20793;-86
2023/08/18 07:36:15;;;;;;;15.83;15.33;;;26.00;99.90;;;;;;4905967;29;20458;-84
2023/08/18 07:38:50;;;;;;;15.90;15.20;;;26.00;99.90;;;;;;4911009;29;20477;-85
2023/08/18 07:41:21;;;;;;;16.90;16.23;;;25.80;99.90;;;;;;4905526;29;20462;-86
2023/08/18 07:43:53;;;;;;;16.40;15.73;;;25.70;99.90;;;;;;4905776;29;20493;-85
2023/08/18 07:46:32;;;;;;;15.80;15.30;;;25.60;99.90;;;;;;4906420;29;20600;-87
2023/08/18 07:49:07;;;;;;;15.50;15.00;;;25.50;99.90;;;;;;4906929;29;20470;-87
2023/08/18 07:51:42;;;;;;;16.50;15.77;;;25.60;99.90;;;;;;4908733;29;20461;-86
2023/08/18 07:54:14;;;;;;;16.50;15.70;;;25.60;99.90;;;;;;4908241;29;20481;-86
2023/08/18 07:56:50;;;;;;;15.80;15.30;;;25.50;99.90;;;;;;4908003;29;20478;-85
2023/08/18 07:59:24;;;;;;;16.90;16.30;;;25.60;99.90;;;;;;4912424;29;20480;-85
2023/08/18 08:01:53;;;;;;;16.90;15.90;;;25.50;99.90;;;;;;4908865;29;20458;-85
2023/08/18 08:04:30;;;;;;;16.40;15.80;;;25.50;99.90;;;;;;4908878;29;20473;-88
2023/08/18 08:07:04;;;;;;;16.77;16.07;;;25.70;99.90;;;;;;4909056;29;20478;-86
2023/08/18 08:09:33;;;;;;;16.97;16.17;;;25.80;99.90;;;;;;4909967;29;20542;-85
2023/08/18 08:12:03;;;;;;;16.63;15.83;;;25.80;99.90;;;;;;4904862;29;20474;-86
2023/08/18 08:14:38;;;;;;;16.80;16.10;;;25.70;99.90;;;;;;4913991;29;20466;-85
2023/08/18 08:17:11;;;;;;;16.50;15.90;;;25.80;99.90;;;;;;4904221;29;20470;-88
2023/08/18 08:19:41;;;;;;;16.50;15.80;;;25.90;99.90;;;;;;4909891;29;20501;-87
2023/08/18 08:22:10;;;;;;;17.80;16.80;;;25.80;99.90;;;;;;4904688;29;20470;-86
2023/08/18 08:24:38;;;;;;;16.60;16.00;;;25.80;99.90;;;;;;4907154;29;20887;-88
2023/08/18 08:27:15;;;;;;;15.90;15.50;;;25.90;99.90;;;;;;4906924;29;20498;-86
2023/08/18 08:29:43;;;;;;;16.37;15.87;;;25.90;99.90;;;;;;4919587;29;20540;-85
2023/08/18 08:32:14;;;;;;;16.23;15.63;;;25.90;99.90;;;;;;4908510;29;20574;-86
2023/08/18 08:34:54;;;;;;;16.90;16.30;;;25.90;99.90;;;;;;4923634;29;20485;-86
2023/08/18 08:37:25;;;;;;;16.60;15.80;;;25.90;99.90;;;;;;4901650;29;20478;-86
2023/08/18 08:39:55;;;;;;;16.80;16.00;;;26.00;99.90;;;;;;4905389;28;20486;-88
2023/08/18 08:42:27;;;;;;;16.10;15.50;;;26.00;99.90;;;;;;4904985;29;20458;-86
2023/08/18 08:45:00;;;;;;;16.77;16.20;;;26.00;99.90;;;;;;4906962;29;20734;-86
2023/08/18 08:47:43;;;;;;;16.40;15.80;;;26.00;99.90;;;;;;4917546;29;20486;-86
2023/08/18 08:50:18;;;;;;;16.47;15.90;;;26.00;99.90;;;;;;4904289;29;20513;-88
2023/08/18 08:52:52;;;;;;;16.10;15.60;;;26.00;99.90;;;;;;4901849;28;20485;-85
2023/08/18 08:55:24;;;;;;;16.27;15.67;;;26.10;99.90;;;;;;4904790;29;20459;-87
2023/08/18 08:57:53;;;;;;;16.40;15.80;;;26.10;99.90;;;;;;4902100;29;20489;-85
2023/08/18 09:00:27;;;;;;;16.10;15.50;;;26.10;99.90;;;;;;4906818;29;20475;-86
2023/08/18 09:03:03;;;;;;;17.10;15.80;;;26.10;99.90;;;;;;4906785;29;20462;-87
2023/08/18 09:05:34;;;;;;;16.23;15.73;;;26.20;99.90;;;;;;4905851;29;20469;-86
2023/08/18 09:08:06;;;;;;;16.70;15.90;;;26.20;99.90;;;;;;4907440;29;20482;-85
2023/08/18 09:10:39;;;;;;;16.80;16.10;;;26.20;99.90;;;;;;4907894;29;20459;-86
2023/08/18 09:13:10;;;;;;;17.33;16.73;;;26.30;99.90;;;;;;4908494;29;20967;-86
2023/08/18 09:15:41;;;;;;;16.63;16.03;;;26.30;99.90;;;;;;4904565;29;20462;-86
2023/08/18 09:18:13;;;;;;;16.80;16.20;;;26.40;99.90;;;;;;4907707;29;21008;-88
2023/08/18 09:20:51;;;;;;;16.80;16.10;;;26.40;99.90;;;;;;4903950;29;20494;-84
2023/08/18 09:23:28;;;;;;;16.90;16.30;;;26.40;99.90;;;;;;4906590;29;20558;-85
2023/08/18 09:25:59;;;;;;;16.40;15.90;;;26.40;99.90;;;;;;4904571;29;20457;-86
2023/08/18 09:28:32;;;;;;;16.93;16.17;;;26.50;99.90;;;;;;4903115;29;20467;-86
2023/08/18 09:31:05;;;;;;;16.67;16.17;;;26.50;99.90;;;;;;4907310;29;20517;-88
2023/08/18 09:33:34;;;;;;;15.90;15.40;;;26.50;99.90;;;;;;4906076;29;20469;-86
2023/08/18 09:36:10;;;;;;;16.53;16.00;;;26.60;99.90;;;;;;4903818;29;20454;-86
2023/08/18 09:38:41;;;;;;;16.33;15.73;;;26.60;99.90;;;;;;4919192;29;20462;-86
2023/08/18 09:41:12;;;;;;;16.67;16.17;;;26.70;99.90;;;;;;4907894;29;21067;-87
2023/08/18 09:43:44;;;;;;;15.93;15.50;;;26.70;99.90;;;;;;4902796;29;20449;-85
2023/08/18 09:46:16;;;;;;;16.60;16.00;;;26.70;99.90;;;;;;4906944;29;20458;-86
2023/08/18 09:48:50;;;;;;;16.57;15.97;;;26.80;99.90;;;;;;4906460;29;20457;-85
2023/08/18 09:51:22;;;;;;;15.87;15.37;;;26.80;99.90;;;;;;4909650;29;20451;-87
2023/08/18 09:53:58;;;;;;;16.10;15.60;;;26.80;99.90;;;;;;4902180;29;20469;-88
2023/08/18 09:56:31;;;;;;;15.93;15.40;;;26.90;99.90;;;;;;4911647;29;20501;-88
2023/08/18 09:59:09;;;;;;;16.33;15.63;;;26.90;99.90;;;;;;4904908;29;20455;-86
2023/08/18 10:01:39;;;;;;;16.90;15.73;;;27.00;99.90;;;;;;4927730;29;20549;-87
2023/08/18 10:04:17;;;;;;;15.77;15.27;;;27.00;99.90;;;;;;4908277;29;20607;-86
2023/08/18 10:06:49;;;;;;;16.37;15.77;;;27.10;99.90;;;;;;4910267;29;21012;-85
2023/08/18 10:09:22;;;;;;;16.70;16.10;;;27.00;99.90;;;;;;4906771;29;20975;-87
2023/08/18 10:11:54;;;;;;;15.83;15.33;;;27.00;99.90;;;;;;4904776;29;21055;-85
2023/08/18 10:14:27;;;;;;;16.20;15.60;;;27.00;99.90;;;;;;4907305;29;20460;-85
2023/08/18 10:16:57;;;;;;;16.20;15.60;;;27.10;99.90;;;;;;4905137;29;20992;-88
2023/08/18 10:19:47;;;;;;;17.10;16.30;;;27.10;99.90;;;;;;4906460;29;20466;-89
2023/08/18 10:22:23;;;;;;;16.57;15.97;;;27.20;99.90;;;;;;4907279;29;20468;-88
2023/08/18 10:24:53;;;;;;;16.77;16.10;;;27.20;99.90;;;;;;4907881;29;20460;-85
2023/08/18 10:27:37;;;;;;;17.57;16.83;;;27.30;99.90;;;;;;4908235;29;20481;-89
2023/08/18 10:30:29;;;;;;;16.10;15.60;;;27.30;99.90;;;;;;4906116;29;20969;-86
2023/08/18 10:33:06;;;;;;;16.23;15.63;;;27.40;99.90;;;;;;4905134;29;20461;-88
2023/08/18 10:35:41;;;;;;;17.07;16.23;;;27.40;99.90;;;;;;4905466;29;21186;-85
2023/08/18 10:38:12;;;;;;;16.53;16.00;;;27.40;99.90;;;;;;4919045;28;20484;-87
2023/08/18 10:40:41;;;;;;;16.87;16.23;;;27.50;99.90;;;;;;4908117;29;20478;-86
2023/08/18 10:43:13;;;;;;;16.27;15.67;;;27.50;99.90;;;;;;4902664;29;20454;-85
2023/08/18 10:45:54;;;;;;;16.23;15.73;;;27.50;99.90;;;;;;4908081;29;20488;-87
2023/08/18 10:48:24;;;;;;;15.70;15.20;;;27.50;99.90;;;;;;4909999;29;20556;-86
2023/08/18 10:50:56;;;;;;;16.80;16.00;;;27.60;99.90;;;;;;4901202;29;20546;-87
2023/08/18 10:53:33;;;;;;;15.50;15.07;;;27.60;99.90;;;;;;4916394;29;20999;-86
2023/08/18 10:56:03;;;;;;;15.97;15.33;;;27.60;99.90;;;;;;4904285;29;20446;-86
2023/08/18 10:58:35;;;;;;;15.90;15.20;;;27.60;99.90;;;;;;4904641;29;21033;-87
2023/08/18 11:01:08;;;;;;;16.90;16.10;;;27.70;99.90;;;;;;4905159;29;20500;-86
2023/08/18 11:03:38;;;;;;;15.93;15.43;;;27.70;99.90;;;;;;4901908;29;20960;-87
2023/08/18 11:06:13;;;;;;;16.57;15.87;;;27.70;99.90;;;;;;4903362;29;20542;-88
2023/08/18 11:08:53;;;;;;;15.23;14.77;;;27.80;99.90;;;;;;4903716;29;20513;-89
2023/08/18 11:11:23;;;;;;;15.50;15.00;;;27.80;99.90;;;;;;4903881;29;20461;-86
2023/08/18 11:13:52;;;;;;;15.27;14.77;;;27.80;99.90;;;;;;4908516;29;20513;-85
2023/08/18 11:16:23;;;;;;;16.80;16.00;;;27.90;99.90;;;;;;4905675;29;20839;-87
2023/08/18 11:18:57;;;;;;;16.00;15.40;;;27.90;99.90;;;;;;4904110;29;20451;-85
2023/08/18 11:21:25;;;;;;;15.63;15.13;;;27.90;99.90;;;;;;4906439;29;20476;-85
2023/08/18 11:23:56;;;;;;;15.07;14.57;;;28.00;99.90;;;;;;4911844;29;20463;-85
2023/08/18 11:26:28;;;;;;;15.10;14.70;;;28.00;99.90;;;;;;4905820;29;20489;-85
2023/08/18 11:28:57;;;;;;;16.00;15.30;;;28.10;99.90;;;;;;4905831;29;20471;-85
2023/08/18 11:31:27;;;;;;;15.10;14.70;;;28.10;99.90;;;;;;4910847;29;20978;-86
2023/08/18 11:33:56;;;;;;;15.23;14.73;;;28.10;99.90;;;;;;4903862;29;20457;-86
2023/08/18 11:36:30;;;;;;;15.80;15.30;;;28.10;99.90;;;;;;4907085;29;20544;-88
2023/08/18 11:39:06;;;;;;;15.53;14.97;;;28.10;99.90;;;;;;4910772;29;20458;-87
2023/08/18 11:41:39;;;;;;;14.90;14.50;;;28.20;99.90;;;;;;4906314;29;20657;-86
2023/08/18 11:44:08;;;;;;;15.20;14.50;;;28.30;99.90;;;;;;4907870;29;20475;-88
2023/08/18 11:46:37;;;;;;;14.80;14.30;;;28.30;99.90;;;;;;4909061;29;20544;-87
2023/08/18 11:49:12;;;;;;;15.07;14.60;;;28.30;99.90;;;;;;4905294;29;20465;-85
2023/08/18 11:51:55;;;;;;;15.30;14.70;;;28.40;99.90;;;;;;4905403;29;20877;-85
2023/08/18 11:54:30;;;;;;;15.60;15.10;;;28.40;99.90;;;;;;4907339;29;20458;-87
2023/08/18 11:56:59;;;;;;;15.30;14.60;;;28.40;99.90;;;;;;4904106;29;20873;-87
2023/08/18 11:59:28;;;;;;;15.63;15.03;;;28.40;99.90;;;;;;4907421;29;20858;-87
2023/08/18 12:01:58;;;;;;;15.60;14.90;;;28.40;99.90;;;;;;4906478;29;20474;-85
2023/08/18 12:04:32;;;;;;;15.67;15.07;;;28.50;99.90;;;;;;4905336;29;20835;-86
2023/08/18 12:07:01;;;;;;;15.60;15.00;;;28.50;99.90;;;;;;4908760;29;20470;-85
2023/08/18 12:09:31;;;;;;;15.67;14.87;;;28.50;99.90;;;;;;4905190;29;20475;-88
2023/08/18 12:12:01;;;;;;;16.00;15.30;;;28.60;99.90;;;;;;4908062;29;20474;-84
2023/08/18 12:14:35;;;;;;;16.50;15.77;;;28.70;99.90;;;;;;4906625;29;20837;-86
2023/08/18 12:17:07;;;;;;;14.93;14.33;;;28.70;99.90;;;;;;4908111;29;20484;-86
2023/08/18 12:19:35;;;;;;;14.90;14.33;;;28.70;99.90;;;;;;4907420;29;20516;-89
2023/08/18 12:22:11;;;;;;;15.20;14.70;;;28.70;99.90;;;;;;4924857;29;20573;-86
2023/08/18 12:24:41;;;;;;;14.73;14.20;;;28.70;99.90;;;;;;4907633;29;20478;-87
2023/08/18 12:27:12;;;;;;;14.83;14.13;;;28.70;99.90;;;;;;4906233;29;20482;-86
2023/08/18 12:29:44;;;;;;;16.00;15.30;;;28.80;99.90;;;;;;4911318;29;20534;-86
2023/08/18 12:32:17;;;;;;;14.80;14.20;;;28.70;99.90;;;;;;4926657;29;20952;-86
2023/08/18 12:34:50;;;;;;;14.73;14.30;;;28.80;99.90;;;;;;4909365;29;20446;-87
2023/08/18 12:37:21;;;;;;;14.63;14.23;;;28.80;99.90;;;;;;4905289;29;20513;-86
2023/08/18 12:39:57;;;;;;;15.00;14.33;;;28.80;99.90;;;;;;4904375;29;20462;-86
2023/08/18 12:42:26;;;;;;;14.53;14.03;;;28.90;99.90;;;;;;4906775;29;20481;-86
2023/08/18 12:45:01;;;;;;;15.77;15.07;;;28.90;99.90;;;;;;4908165;29;20844;-87
2023/08/18 12:47:35;;;;;;;14.77;14.27;;;28.80;99.90;;;;;;4907765;29;20524;-86
2023/08/18 12:50:04;;;;;;;15.90;15.00;;;28.80;99.90;;;;;;4903202;29;20497;-89
2023/08/18 12:52:33;;;;;;;14.50;13.93;;;28.90;99.90;;;;;;4906678;29;20552;-87
2023/08/18 12:55:07;;;;;;;14.90;14.30;;;29.00;99.90;;;;;;4908823;29;20473;-87
2023/08/18 12:57:40;;;;;;;14.83;14.03;;;29.00;99.90;;;;;;4907427;29;21100;-86
2023/08/18 13:00:11;;;;;;;15.60;14.70;;;29.00;99.90;;;;;;4908276;28;20478;-87
2023/08/18 13:02:44;;;;;;;14.77;14.10;;;28.90;99.90;;;;;;4907007;29;20481;-87
2023/08/18 13:05:18;;;;;;;14.37;13.87;;;28.90;99.90;;;;;;4905858;29;20458;-90
2023/08/18 13:07:48;;;;;;;14.27;13.47;;;28.90;99.90;;;;;;4908116;29;20528;-87
2023/08/18 13:10:26;;;;;;;14.73;14.03;;;28.90;99.90;;;;;;4909918;29;20450;-86
2023/08/18 13:12:58;;;;;;;13.77;13.37;;;29.00;99.90;;;;;;4909372;29;20522;-86
2023/08/18 13:15:27;;;;;;;14.37;13.67;;;29.00;99.90;;;;;;4905566;29;20455;-87
2023/08/18 13:18:02;;;;;;;14.47;13.87;;;29.00;99.90;;;;;;4906212;29;20469;-85
2023/08/18 13:20:35;;;;;;;13.70;13.20;;;29.00;99.90;;;;;;4906683;29;20533;-86
2023/08/18 13:23:07;;;;;;;14.37;13.67;;;29.00;99.90;;;;;;4911820;29;20492;-88
2023/08/18 13:25:41;;;;;;;14.00;13.30;;;29.10;99.90;;;;;;4906743;29;20870;-86
2023/08/18 13:28:13;;;;;;;14.40;13.90;;;29.10;99.90;;;;;;4906067;29;20494;-86
2023/08/18 13:30:45;;;;;;;14.20;13.70;;;29.10;99.90;;;;;;4906479;29;20445;-88
2023/08/18 13:33:17;;;;;;;14.17;13.60;;;29.20;99.90;;;;;;4905558;29;20446;-88
2023/08/18 13:35:49;;;;;;;14.87;14.20;;;29.10;99.90;;;;;;4906040;29;20451;-86
2023/08/18 13:38:23;;;;;;;14.43;13.83;;;29.20;99.90;;;;;;4907075;29;20473;-87
2023/08/18 13:40:55;;;;;;;13.63;13.13;;;29.30;99.90;;;;;;4904918;29;20457;-85
2023/08/18 13:43:33;;;;;;;14.93;14.23;;;29.20;99.90;;;;;;4908904;29;20481;-87
2023/08/18 13:46:04;;;;;;;14.53;14.03;;;29.30;99.90;;;;;;4907944;29;20462;-89
2023/08/18 13:48:38;;;;;;;15.13;14.43;;;29.30;99.90;;;;;;4906609;29;20477;-86
2023/08/18 13:51:06;;;;;;;14.60;14.10;;;29.30;99.90;;;;;;4911574;29;20839;-86
2023/08/18 13:53:42;;;;;;;15.20;14.40;;;29.30;99.90;;;;;;4905329;29;20828;-86
2023/08/18 13:56:13;;;;;;;14.70;14.00;;;29.30;99.90;;;;;;4908505;29;20457;-86
2023/08/18 13:58:47;;;;;;;14.17;13.57;;;29.40;99.90;;;;;;4906344;29;20462;-86
2023/08/18 14:01:23;;;;;;;14.30;13.80;;;29.40;99.90;;;;;;4902808;29;20477;-85
2023/08/18 14:03:52;;;;;;;14.20;13.50;;;29.30;99.90;;;;;;4902895;29;21001;-86
2023/08/18 14:06:24;;;;;;;15.17;14.43;;;29.30;99.90;;;;;;4906150;29;20458;-86
2023/08/18 14:08:56;;;;;;;14.53;13.93;;;29.40;99.90;;;;;;4902922;29;20466;-87
2023/08/18 14:11:28;;;;;;;14.33;13.83;;;29.30;99.90;;;;;;4902847;29;20451;-87
2023/08/18 14:13:57;;;;;;;14.60;13.80;;;29.30;99.90;;;;;;4922508;29;20509;-90
2023/08/18 14:16:29;;;;;;;13.93;13.53;;;29.30;99.90;;;;;;4904336;29;20442;-86
2023/08/18 14:19:00;;;;;;;13.53;13.03;;;29.50;99.90;;;;;;4903543;29;20462;-85
2023/08/18 14:21:36;;;;;;;13.90;13.40;;;29.50;99.90;;;;;;4901817;29;20531;-86
2023/08/18 14:24:05;;;;;;;14.90;14.10;;;29.50;99.90;;;;;;4905182;29;20493;-88
2023/08/18 14:26:41;;;;;;;13.60;13.10;;;29.40;99.90;;;;;;4902642;29;20526;-87
2023/08/18 14:29:14;;;;;;;13.90;13.40;;;29.40;99.90;;;;;;4906086;29;20497;-86
2023/08/18 14:31:44;;;;;;;13.77;13.27;;;29.40;99.90;;;;;;4907358;29;20478;-86
2023/08/18 14:34:13;;;;;;;13.50;13.00;;;29.40;99.90;;;;;;4911664;29;20454;-85
2023/08/18 14:36:41;;;;;;;14.30;13.60;;;29.40;99.90;;;;;;4919472;29;20502;-88
2023/08/18 14:39:13;;;;;;;14.83;14.10;;;29.40;99.90;;;;;;4906998;29;20450;-85
2023/08/18 14:41:45;;;;;;;14.20;13.70;;;29.40;99.90;;;;;;4904530;29;20470;-86
2023/08/18 14:44:18;;;;;;;14.27;13.60;;;29.40;99.90;;;;;;4919781;29;20478;-86
2023/08/18 14:46:51;;;;;;;15.10;14.50;;;29.40;99.90;;;;;;4906370;29;20482;-85
2023/08/18 14:49:20;;;;;;;14.73;14.03;;;29.40;99.90;;;;;;4902825;29;20850;-86
2023/08/18 14:51:52;;;;;;;13.97;13.27;;;29.50;99.90;;;;;;4904229;29;20457;-87
2023/08/18 14:54:22;;;;;;;13.73;13.20;;;29.60;99.90;;;;;;4920844;29;20481;-89
2023/08/18 14:56:58;;;;;;;14.07;13.30;;;29.60;99.90;;;;;;4910600;29;21014;-86
2023/08/18 14:59:33;;;;;;;14.90;14.13;;;29.60;99.90;;;;;;4908723;29;20857;-88
2023/08/18 15:02:06;;;;;;;14.50;13.80;;;29.50;99.90;;;;;;4905108;29;20515;-86
2023/08/18 15:04:37;;;;;;;13.87;13.37;;;29.50;99.90;;;;;;4911524;29;20489;-88
2023/08/18 15:07:08;;;;;;;14.33;13.63;;;29.50;99.90;;;;;;4908943;29;20910;-87
2023/08/18 15:09:38;;;;;;;14.77;13.83;;;29.50;99.90;;;;;;4908500;29;20470;-84
2023/08/18 15:12:15;;;;;;;13.93;13.37;;;29.50;99.90;;;;;;4906961;29;20543;-88
2023/08/18 15:14:49;;;;;;;14.60;13.70;;;29.50;99.90;;;;;;4914958;29;20533;-86
2023/08/18 15:17:21;;;;;;;14.13;13.60;;;29.40;99.90;;;;;;4905227;29;20526;-87
2023/08/18 15:19:55;;;;;;;13.70;13.20;;;29.50;99.90;;;;;;4904814;29;20464;-87
2023/08/18 15:22:30;;;;;;;14.17;13.57;;;29.50;99.90;;;;;;4909417;29;20604;-87
2023/08/18 15:25:12;;;;;;;14.33;13.53;;;29.40;99.90;;;;;;4911502;29;20809;-87
2023/08/18 15:27:45;;;;;;;14.00;13.30;;;29.50;99.90;;;;;;4909837;29;20512;-86
2023/08/18 15:30:18;;;;;;;14.57;13.87;;;29.50;99.90;;;;;;4911226;29;20947;-86
2023/08/18 15:32:56;;;;;;;13.70;13.20;;;29.50;99.90;;;;;;4908651;29;20458;-86
2023/08/18 15:35:28;;;;;;;14.80;13.90;;;29.50;99.90;;;;;;4906703;29;20964;-86
2023/08/18 15:38:02;;;;;;;14.53;13.73;;;29.50;99.90;;;;;;4910716;29;20485;-86
2023/08/18 15:40:31;;;;;;;14.40;13.80;;;29.60;99.90;;;;;;4908480;29;20517;-87
2023/08/18 15:43:09;;;;;;;14.30;13.60;;;29.60;99.90;;;;;;4908606;29;20453;-86
2023/08/18 15:45:48;;;;;;;13.63;13.00;;;29.50;99.90;;;;;;4921004;29;20582;-87
2023/08/18 15:48:20;;;;;;;14.40;13.33;;;29.60;99.90;;;;;;4912961;29;21014;-86
2023/08/18 15:50:51;;;;;;;13.90;13.30;;;29.50;99.90;;;;;;4909404;29;20461;-89
2023/08/18 15:53:30;;;;;;;13.83;13.13;;;29.50;99.90;;;;;;4905963;29;20857;-86
2023/08/18 15:56:07;;;;;;;13.83;13.23;;;29.50;99.90;;;;;;4909951;29;20837;-87
2023/08/18 15:58:44;;;;;;;13.07;12.60;;;29.50;99.90;;;;;;4908785;29;20449;-86
2023/08/18 16:01:20;;;;;;;13.20;12.80;;;29.40;99.90;;;;;;4908541;29;20466;-86
2023/08/18 16:03:50;;;;;;;13.60;13.10;;;29.30;99.90;;;;;;4906328;29;20482;-86
2023/08/18 16:06:20;;;;;;;14.30;13.60;;;29.40;99.90;;;;;;4910327;29;20458;-87
2023/08/18 16:09:05;;;;;;;13.83;13.33;;;29.30;99.90;;;;;;4906347;29;20462;-86